Time;durP1;ratioP1;P1;durP2;ratioP2;P2;SDS_P1;SDS_P2;PMS_P1;PMS_P2;Temp;Humidity;BMP_temperature;BMP_pressure;BME280_temperature;BME280_humidity;BME280_pressure;Samples;Min_cycle;Max_cycle;Signal;HPM_P1;HPM_P2
2022/11/27 07:45:36;;;;;;;30.97;15.83;;;;;;;3.13;100.00;148453.36;1788053;80;22793;-64
2022/11/27 07:48:03;;;;;;;25.45;13.18;;;;;;;3.12;100.00;148450.78;1762063;81;20944;-65
2022/11/27 07:50:31;;;;;;;25.88;13.80;;;;;;;3.17;100.00;148461.09;1761882;81;21007;-65
2022/11/27 07:52:58;;;;;;;32.75;13.05;;;;;;;3.21;100.00;148471.47;1761745;81;21376;-65
2022/11/27 07:55:25;;;;;;;29.23;14.30;;;;;;;3.25;100.00;148481.77;1761901;81;20844;-65
2022/11/27 07:57:52;;;;;;;24.92;12.10;;;;;;;3.29;100.00;148492.09;1761845;81;20927;-65
2022/11/27 08:00:21;;;;;;;27.80;13.78;;;;;;;3.33;100.00;148502.41;1761906;81;21357;-65
2022/11/27 08:02:48;;;;;;;25.45;13.88;;;;;;;3.37;100.00;148512.72;1761906;81;21312;-65
2022/11/27 08:05:15;;;;;;;24.20;12.88;;;;;;;3.40;100.00;148519.19;1761871;81;20896;-64
2022/11/27 08:07:42;;;;;;;26.12;12.68;;;;;;;3.44;100.00;148530.81;1761901;81;21335;-64
2022/11/27 08:10:09;;;;;;;26.52;13.25;;;;;;;3.46;100.00;148533.39;1761912;81;20888;-65
2022/11/27 08:12:36;;;;;;;25.75;13.28;;;;;;;3.46;100.00;148533.39;1761827;81;21491;-65
2022/11/27 08:15:07;;;;;;;27.85;13.50;;;;;;;3.43;100.00;148526.92;1761836;81;21241;-65
2022/11/27 08:17:34;;;;;;;22.77;12.07;;;;;;;3.40;100.00;148520.45;1762110;81;21483;-64
2022/11/27 08:20:01;;;;;;;24.00;12.53;;;;;;;3.40;100.00;148520.45;1761708;81;20928;-65
2022/11/27 08:22:30;;;;;;;27.58;12.65;;;;;;;3.36;100.00;148510.14;1761791;81;20888;-65
2022/11/27 08:24:57;;;;;;;26.65;14.03;;;;;;;3.34;100.00;148504.97;1761984;81;20967;-65
2022/11/27 08:27:24;;;;;;;30.25;14.23;;;;;;;3.30;100.00;148495.92;1761883;81;21234;-65
2022/11/27 08:29:51;;;;;;;27.85;14.45;;;;;;;3.29;100.00;148492.09;1761754;81;20966;-65
2022/11/27 08:32:18;;;;;;;28.75;13.62;;;;;;;3.29;100.00;148492.09;1761749;81;20940;-65
2022/11/27 08:34:44;;;;;;;26.95;13.95;;;;;;;3.28;100.00;148489.50;1761699;81;21380;-65
2022/11/27 08:37:11;;;;;;;31.52;14.03;;;;;;;3.28;100.00;148489.50;1761820;81;20924;-65
2022/11/27 08:42:14;;;;;;;30.68;14.70;;;;;;;3.30;100.00;148494.67;1746300;81;20935;-65
2022/11/27 08:44:41;;;;;;;29.92;13.83;;;;;;;3.34;100.00;148504.97;1761549;81;20916;-65
2022/11/27 08:47:08;;;;;;;33.42;14.75;;;;;;;3.35;100.00;148507.56;1761169;80;20959;-65
2022/11/27 08:49:34;;;;;;;31.75;14.38;;;;;;;3.36;100.00;148510.14;1761218;81;20919;-65
2022/11/27 08:52:01;;;;;;;27.10;12.35;;;;;;;3.40;100.00;148520.45;1761160;81;21104;-65
2022/11/27 08:54:28;;;;;;;27.48;13.72;;;;;;;3.39;100.00;148516.61;1761153;81;20916;-64
2022/11/27 08:56:54;;;;;;;27.67;14.33;;;;;;;3.37;100.00;148511.45;1761398;80;21317;-65
2022/11/27 08:59:22;;;;;;;26.97;13.60;;;;;;;3.38;100.00;148515.30;1761207;81;20896;-65
2022/11/27 09:01:49;;;;;;;25.90;12.90;;;;;;;3.38;100.00;148515.30;1761181;81;20979;-65
2022/11/27 09:04:16;;;;;;;27.75;13.68;;;;;;;3.39;100.00;148517.88;1761324;81;21245;-64
2022/11/27 09:06:43;;;;;;;28.60;13.75;;;;;;;3.44;100.00;148529.50;1761143;81;21401;-65
2022/11/27 09:09:10;;;;;;;30.25;12.82;;;;;;;3.51;100.00;148547.56;1761236;81;21444;-65
2022/11/27 09:11:38;;;;;;;27.25;13.18;;;;;;;3.53;100.00;148552.72;1761208;81;21022;-66
2022/11/27 09:14:05;;;;;;;26.12;12.18;;;;;;;3.53;100.00;148552.72;1761194;81;21522;-64
2022/11/27 09:16:32;;;;;;;28.87;13.20;;;;;;;3.55;100.00;148557.92;1761305;81;21146;-65
2022/11/27 09:18:59;;;;;;;25.05;12.88;;;;;;;3.55;100.00;148557.92;1761143;81;21479;-65
2022/11/27 09:21:29;;;;;;;33.48;14.23;;;;;;;3.60;100.00;148568.25;1761208;81;20955;-65
2022/11/27 09:23:57;;;;;;;25.72;12.53;;;;;;;3.60;100.00;148569.50;1761606;80;20935;-65
2022/11/27 09:26:25;;;;;;;24.05;12.55;;;;;;;3.59;100.00;148566.92;1761225;81;20861;-65
2022/11/27 09:28:53;;;;;;;27.35;14.07;;;;;;;3.61;100.00;148570.81;1761161;81;21146;-65
2022/11/27 09:31:19;;;;;;;26.12;13.43;;;;;;;3.59;100.00;148566.92;1761119;81;20868;-66
2022/11/27 09:33:46;;;;;;;23.50;10.65;;;;;;;3.63;100.00;148575.97;1761196;81;20955;-64
2022/11/27 09:36:20;;;;;;;25.12;11.85;;;;;;;3.70;100.00;148594.03;1761286;80;21436;-64
2022/11/27 09:38:47;;;;;;;25.15;12.15;;;;;;;3.70;100.00;148595.34;1760940;81;20951;-65
2022/11/27 09:41:38;;;;;;;25.45;12.25;;;;;;;3.68;100.00;148588.88;1761154;81;21224;-66
2022/11/27 09:44:47;;;;;;;28.70;12.40;;;;;;;3.67;100.00;148586.30;1761031;81;20880;-64
2022/11/27 09:47:38;;;;;;;24.27;11.70;;;;;;;3.69;100.00;148592.77;1761282;81;20943;-64
2022/11/27 09:50:23;;;;;;;23.10;9.93;;;;;;;3.67;100.00;148586.30;1761122;81;20900;-64
2022/11/27 09:52:59;;;;;;;;;;;;;;;3.64;100.00;148579.81;1763963;81;20931;-64
2022/11/27 09:55:44;;;;;;;25.27;12.58;;;;;;;3.58;100.00;148565.66;1761139;81;21234;-64
2022/11/27 09:58:18;;;;;;;23.62;11.18;;;;;;;3.57;100.00;148561.77;1760282;81;21443;-64
2022/11/27 10:00:46;;;;;;;22.27;11.78;;;;;;;3.57;100.00;148561.77;1761263;81;21375;-64
2022/11/27 10:03:20;;;;;;;26.75;13.03;;;;;;;3.57;100.00;148561.77;1761453;81;20955;-64
2022/11/27 10:05:54;;;;;;;27.45;12.25;;;;;;;3.59;100.00;148566.92;1761150;81;21428;-64
2022/11/27 10:08:36;;;;;;;27.75;13.60;;;;;;;3.60;100.00;148569.50;1761256;81;21249;-64
2022/11/27 10:11:26;;;;;;;23.27;12.07;;;;;;;3.58;100.00;148564.34;1713768;81;21048;-65
2022/11/27 10:14:34;;;;;;;26.33;13.60;;;;;;;3.62;100.00;148574.66;1761354;80;21353;-65
2022/11/27 10:17:38;;;;;;;35.43;13.75;;;;;;;3.62;100.00;148574.66;1760933;80;20971;-65
2022/11/27 10:20:33;;;;;;;26.42;12.23;;;;;;;3.62;100.00;148574.66;1761132;81;20873;-64
2022/11/27 10:23:19;;;;;;;18.82;10.60;;;;;;;3.62;100.00;148574.66;1749364;81;20959;-65
2022/11/27 10:25:51;;;;;;;18.23;9.73;;;;;;;3.57;100.00;148563.08;1760701;81;20948;-65
2022/11/27 10:28:58;;;;;;;18.15;9.08;;;;;;;3.52;100.00;148550.14;1727653;83;20967;-65
2022/11/27 10:31:56;;;;;;;19.92;10.60;;;;;;;3.49;100.00;148541.12;1726772;82;20888;-67
2022/11/27 10:34:42;;;;;;;21.07;10.98;;;;;;;3.46;100.00;148534.66;1696795;83;20909;-67
2022/11/27 10:37:29;;;;;;;18.95;10.90;;;;;;;3.46;100.00;148533.39;1722785;82;21144;-65
2022/11/27 10:40:13;;;;;;;19.95;10.98;;;;;;;3.43;100.00;148528.23;1669615;84;21414;-66
2022/11/27 10:43:12;;;;;;;19.60;10.35;;;;;;;3.41;100.00;148523.03;1731140;81;20931;-66
2022/11/27 10:45:50;;;;;;;20.20;10.58;;;;;;;3.41;100.00;148523.03;1727028;82;21054;-65
2022/11/27 10:48:17;;;;;;;18.55;9.35;;;;;;;3.42;100.00;148525.61;1727280;83;21019;-66
2022/11/27 19:48:40;;;;;;;7.53;4.87;;;;;;;1.80;100.00;148121.97;1855469;76;21605;-64
2022/11/27 19:51:08;;;;;;;8.18;5.17;;;;;;;1.81;100.00;148123.22;1843096;76;21707;-64
2022/11/27 19:53:36;;;;;;;7.90;4.72;;;;;;;1.81;100.00;148123.22;1860898;76;20988;-64
2022/11/27 19:56:05;;;;;;;11.25;5.33;;;;;;;1.80;100.00;148120.64;1852993;76;20921;-64
2022/11/27 19:58:32;;;;;;;8.68;4.90;;;;;;;1.80;100.00;148120.64;1846283;76;20821;-64
2022/11/27 20:01:11;;;;;;;9.55;5.50;;;;;;;1.81;100.00;148123.22;1854968;76;20885;-64
2022/11/27 20:03:37;;;;;;;9.33;4.80;;;;;;;1.81;100.00;148123.22;1850562;76;20901;-64
2022/11/27 20:06:13;;;;;;;7.50;4.55;;;;;;;1.82;100.00;148125.80;1846422;76;20940;-64
2022/11/27 20:08:40;;;;;;;8.18;4.95;;;;;;;1.82;100.00;148125.80;1853252;76;20936;-64
2022/11/27 20:11:10;;;;;;;8.15;4.62;;;;;;;1.80;100.00;148121.97;1860967;77;21200;-64
2022/11/27 20:13:38;;;;;;;7.85;4.85;;;;;;;1.81;100.00;148123.22;1852782;76;20878;-64
2022/11/27 20:16:13;;;;;;;8.10;4.75;;;;;;;1.81;100.00;148123.22;1855586;76;20861;-64
2022/11/27 20:18:40;;;;;;;7.58;5.03;;;;;;;1.82;100.00;148127.11;1845350;76;20944;-63
2022/11/27 20:21:13;;;;;;;7.65;4.25;;;;;;;1.84;100.00;148130.95;1842054;76;20853;-64
2022/11/27 20:23:42;;;;;;;7.10;4.07;;;;;;;1.83;100.00;148129.69;1864089;76;21205;-64
2022/11/27 20:26:12;;;;;;;8.13;4.70;;;;;;;1.84;100.00;148130.95;1860265;76;20901;-64
2022/11/27 20:28:40;;;;;;;6.10;3.62;;;;;;;1.84;100.00;148130.95;1853909;76;20893;-64
2022/11/27 20:31:23;;;;;;;7.03;4.10;;;;;;;1.85;100.00;148133.53;1842939;76;20929;-65
2022/11/27 20:33:47;;;;;;;7.37;4.80;;;;;;;1.86;100.00;148136.09;1845263;77;20992;-63
2022/11/27 20:36:15;;;;;;;5.72;3.70;;;;;;;1.85;100.00;148133.53;1855090;76;21190;-64
2022/11/27 20:38:42;;;;;;;5.80;3.85;;;;;;;1.86;100.00;148136.09;1855856;76;21117;-64
2022/11/27 20:41:11;;;;;;;6.17;4.30;;;;;;;1.88;100.00;148141.30;1848385;76;20920;-61
2022/11/27 20:43:38;;;;;;;8.15;4.60;;;;;;;1.89;100.00;148143.88;1851559;77;20920;-61
2022/11/27 20:46:06;;;;;;;9.63;4.95;;;;;;;1.89;100.00;148143.88;1855117;76;20904;-61
2022/11/27 20:48:33;;;;;;;9.13;4.65;;;;;;;1.90;100.00;148146.45;1852732;76;21219;-61
2022/11/27 20:51:12;;;;;;;16.12;5.22;;;;;;;1.90;100.00;148146.45;1850735;76;20979;-61
2022/11/27 20:53:40;;;;;;;15.53;5.12;;;;;;;1.91;100.00;148149.03;1839431;76;20909;-61
2022/11/27 20:56:07;;;;;;;16.95;4.72;;;;;;;1.92;100.00;148151.59;1850156;76;21451;-61
2022/11/27 20:58:35;;;;;;;17.52;5.80;;;;;;;1.92;100.00;148150.30;1849385;76;20956;-61
2022/11/27 21:01:15;;;;;;;9.10;4.75;;;;;;;1.91;100.00;148149.03;1855302;76;21309;-61
2022/11/27 21:03:44;;;;;;;7.35;4.50;;;;;;;1.90;100.00;148146.45;1844785;76;20816;-61
2022/11/27 21:06:11;;;;;;;13.93;5.53;;;;;;;1.89;100.00;148142.56;1847418;76;20916;-61
2022/11/27 21:08:38;;;;;;;11.22;5.17;;;;;;;1.86;100.00;148137.41;1860854;76;21448;-61
2022/11/27 21:11:14;;;;;;;12.23;5.17;;;;;;;1.85;100.00;148134.84;1842172;76;20888;-61
2022/11/27 21:13:43;;;;;;;11.03;4.80;;;;;;;1.84;100.00;148132.27;1860325;76;21163;-60
2022/11/27 21:16:11;;;;;;;11.93;4.78;;;;;;;1.85;100.00;148133.53;1860283;76;20837;-62
2022/11/27 21:18:38;;;;;;;15.78;5.37;;;;;;;1.86;100.00;148137.41;1860433;77;21381;-62
2022/11/27 21:21:11;;;;;;;8.00;4.28;;;;;;;1.88;100.00;148141.30;1850804;76;20941;-62
2022/11/27 21:23:40;;;;;;;8.28;4.50;;;;;;;1.88;100.00;148141.30;1847690;76;20905;-61
2022/11/27 21:26:08;;;;;;;8.48;4.28;;;;;;;1.88;100.00;148141.30;1848535;76;21093;-61
2022/11/27 21:28:35;;;;;;;22.20;4.00;;;;;;;1.92;100.00;148151.59;1852841;76;20960;-61
2022/11/27 21:31:17;;;;;;;11.03;4.00;;;;;;;1.91;100.00;148147.72;1832904;76;21048;-61
2022/11/27 21:33:58;;;;;;;10.90;4.33;;;;;;;1.91;100.00;148147.72;1855983;76;21035;-60
2022/11/27 21:36:28;;;;;;;8.80;4.60;;;;;;;1.91;100.00;148149.03;1853351;77;21452;-62
2022/11/27 21:38:56;;;;;;;9.50;3.72;;;;;;;1.89;100.00;148143.88;1856367;76;21773;-61
2022/11/27 21:41:24;;;;;;;11.55;4.97;;;;;;;1.88;100.00;148141.30;1842142;76;20830;-61
2022/11/27 21:43:56;;;;;;;10.08;5.10;;;;;;;1.89;100.00;148143.88;1847420;76;20881;-61
2022/11/27 21:46:23;;;;;;;8.68;5.17;;;;;;;1.86;100.00;148137.41;1852447;76;20885;-62
2022/11/27 21:48:52;;;;;;;9.18;5.17;;;;;;;1.84;100.00;148130.95;1845992;76;20947;-61
2022/11/27 21:51:20;;;;;;;10.80;5.70;;;;;;;1.82;100.00;148125.80;1856724;77;21128;-62
2022/11/27 21:53:49;;;;;;;10.32;5.12;;;;;;;1.79;100.00;148119.39;1842744;76;21161;-63
2022/11/27 21:56:18;;;;;;;14.73;4.42;;;;;;;1.78;100.00;148115.50;1854933;76;20956;-61
2022/11/27 21:58:45;;;;;;;8.85;4.28;;;;;;;1.77;100.00;148112.92;1854446;76;20975;-61
2022/11/27 22:01:17;;;;;;;10.08;3.87;;;;;;;1.75;100.00;148107.77;1852331;76;21311;-61
2022/11/27 22:03:45;;;;;;;12.60;4.00;;;;;;;1.75;100.00;148107.77;1857314;76;21256;-61
2022/11/27 22:06:14;;;;;;;9.10;4.25;;;;;;;1.75;100.00;148107.77;1855066;76;21459;-61
2022/11/27 22:08:43;;;;;;;8.58;4.15;;;;;;;1.75;100.00;148107.77;1854693;76;21448;-60
2022/11/27 22:11:14;;;;;;;9.35;5.20;;;;;;;1.75;100.00;148109.03;1841077;76;20964;-61
2022/11/27 22:13:41;;;;;;;9.65;5.03;;;;;;;1.75;100.00;148107.77;1845542;76;20878;-61
2022/11/27 22:16:12;;;;;;;6.28;3.95;;;;;;;1.75;100.00;148109.03;1855391;76;21278;-61
2022/11/27 22:18:41;;;;;;;8.95;4.17;;;;;;;1.75;100.00;148107.77;1856765;77;20913;-61
2022/11/27 22:21:09;;;;;;;11.75;4.37;;;;;;;1.74;100.00;148105.19;1842579;76;20874;-61
2022/11/27 22:23:38;;;;;;;9.95;4.12;;;;;;;1.73;100.00;148102.63;1840135;76;20916;-63
2022/11/27 22:26:08;;;;;;;7.45;4.37;;;;;;;1.70;100.00;148096.16;1849738;76;21322;-63
2022/11/27 22:28:35;;;;;;;7.78;4.60;;;;;;;1.68;100.00;148092.31;1850585;76;21199;-62
2022/11/27 22:31:15;;;;;;;8.53;4.35;;;;;;;1.65;100.00;148084.55;1849374;76;20951;-63
2022/11/27 22:33:42;;;;;;;9.43;4.05;;;;;;;1.65;100.00;148083.28;1847003;76;20920;-61
2022/11/27 22:36:18;;;;;;;11.12;4.20;;;;;;;1.63;100.00;148079.39;1853489;76;21014;-61
2022/11/27 22:38:47;;;;;;;7.25;3.83;;;;;;;1.61;100.00;148072.98;1848059;76;20817;-61
2022/11/27 22:41:17;;;;;;;9.45;4.40;;;;;;;1.58;100.00;148066.52;1849179;76;21958;-61
2022/11/27 22:43:44;;;;;;;10.32;4.80;;;;;;;1.55;100.00;148060.11;1841255;76;21440;-61
2022/11/27 22:46:18;;;;;;;7.10;4.35;;;;;;;1.55;100.00;148058.78;1847793;76;21346;-61
2022/11/27 22:48:46;;;;;;;10.03;4.08;;;;;;;1.52;100.00;148051.06;1860503;77;21007;-61
2022/11/27 22:51:13;;;;;;;12.65;3.90;;;;;;;1.48;100.00;148042.03;1853695;76;20853;-61
2022/11/27 22:53:39;;;;;;;7.92;3.80;;;;;;;1.46;100.00;148035.62;1843762;76;21350;-61
2022/11/27 22:56:09;;;;;;;8.08;4.47;;;;;;;1.45;100.00;148033.05;1855929;76;21132;-61
2022/11/27 22:58:37;;;;;;;11.90;4.10;;;;;;;1.41;100.00;148025.27;1857772;77;20889;-61
2022/11/27 23:01:05;;;;;;;8.20;4.50;;;;;;;1.40;100.00;148022.69;1852252;76;21357;-61
2022/11/27 23:03:33;;;;;;;7.65;4.53;;;;;;;1.38;100.00;148017.55;1860413;76;20913;-61
2022/11/27 23:06:00;;;;;;;6.58;3.92;;;;;;;1.38;100.00;148017.55;1860099;77;21886;-61
2022/11/27 23:08:27;;;;;;;7.95;4.62;;;;;;;1.35;100.00;148009.81;1860172;76;20940;-61
2022/11/27 23:10:54;;;;;;;7.70;4.40;;;;;;;1.32;100.00;148002.09;1860284;77;20919;-61
2022/11/27 23:13:22;;;;;;;10.40;5.03;;;;;;;1.31;100.00;147999.53;1860217;77;21408;-61
2022/11/27 23:15:49;;;;;;;8.78;5.12;;;;;;;1.29;100.00;147994.38;1839614;76;21007;-61
2022/11/27 23:18:15;;;;;;;8.13;4.28;;;;;;;1.29;100.00;147995.64;1858210;77;21086;-61
2022/11/27 23:20:43;;;;;;;7.50;5.20;;;;;;;1.29;100.00;147994.38;1859383;76;20968;-61
2022/11/27 23:23:10;;;;;;;8.53;5.35;;;;;;;1.28;100.00;147991.80;1853853;76;20976;-61
2022/11/27 23:25:38;;;;;;;17.95;6.50;;;;;;;1.26;100.00;147987.91;1842215;76;21405;-61
2022/11/27 23:28:06;;;;;;;11.43;5.70;;;;;;;1.25;100.00;147984.08;1854720;76;21059;-61
2022/11/27 23:30:33;;;;;;;21.62;6.20;;;;;;;1.23;100.00;147980.19;1860207;77;21318;-63
2022/11/27 23:33:00;;;;;;;13.88;6.53;;;;;;;1.23;100.00;147978.94;1841824;76;21402;-64
2022/11/27 23:35:27;;;;;;;17.82;6.05;;;;;;;1.21;100.00;147973.73;1847846;76;20889;-64
2022/11/27 23:37:56;;;;;;;11.83;5.72;;;;;;;1.19;100.00;147969.89;1860232;76;20967;-63
2022/11/27 23:40:23;;;;;;;8.03;4.70;;;;;;;1.18;100.00;147966.02;1860039;77;20869;-63
2022/11/27 23:42:50;;;;;;;9.83;5.28;;;;;;;1.18;100.00;147967.31;1853431;76;21763;-64
2022/11/27 23:45:17;;;;;;;10.35;5.30;;;;;;;1.19;100.00;147968.59;1848611;76;20955;-64
2022/11/27 23:47:43;;;;;;;13.38;5.95;;;;;;;1.19;100.00;147968.59;1852425;76;20975;-64
2022/11/27 23:50:11;;;;;;;9.90;5.70;;;;;;;1.19;100.00;147968.59;1847914;76;20976;-64
2022/11/27 23:52:38;;;;;;;10.20;5.85;;;;;;;1.18;100.00;147966.02;1839307;76;20951;-64
2022/11/27 23:55:06;;;;;;;13.88;6.72;;;;;;;1.15;100.00;147959.59;1850175;76;21822;-64
2022/11/27 23:57:33;;;;;;;13.08;6.67;;;;;;;1.12;100.00;147953.14;1860396;76;20853;-64
